Aviation Digital Data Service (ADDS)

Output produced by METARs form (0627 UTC 19 March 2019)
found at http://www.aviationweather.gov/metar/data/
 
Forecast for: PASI (SITKA , AK, US)
Text: PASI 190530Z 1906/2006 12010KT P6SM FEW050
Forecast period: 0600 to 1200 UTC 19 March 2019
Forecast type: FROM: standard forecast or significant change
Winds: from the ESE (120 degrees) at 12 MPH (10 knots; 5.1 m/s)
Visibility: 6 or more miles 10+ km)
Ceiling: at least 12,000 feet AGL
Clouds: few clouds at 5000 feet AGL
Weather: no significant weather forecast for this period
Text: FM191200 11005KT P6SM SKC
Forecast period: 1200 UTC 19 March 2019 to 0000 UTC 20 March 2019
Forecast type: FROM: standard forecast or significant change
Winds: from the ESE (110 degrees) at 6 MPH (5 knots; 2.6 m/s)
Visibility: 6 or more miles 10+ km)
Clouds: clear skies
Weather: no significant weather forecast for this period
Text: FM200000 12012KT P6SM SKC
Forecast period: 0000 to 0600 UTC 20 March 2019
Forecast type: FROM: standard forecast or significant change
Winds: from the ESE (120 degrees) at 14 MPH (12 knots; 6.2 m/s)
Visibility: 6 or more miles 10+ km)
Clouds: clear skies
Weather: no significant weather forecast for this period